Kilauea, Hawaii
Current Conditions -  °F | °C
As of 6:53 PM on Thursday 30 Oct 2014 (Local Time) from PHLI Reporting Station
Scattered Clouds Scattered Clouds  
Wind Chill: 77°   Ceiling: Unl
Heat Index: 79°   Visibility: 10mi
Dew Point: 69°   Wind: 23mph
Humidity: 76%   Direction: 60°ENE
Pressure: 30.08"   Gusts: 29mph
Location:  22.2°N, 159.4°W
Report Text: PHLI 310453Z 06020G25KT 10SM FEW020 SCT027 SCT090 25/21 A3008 RMK AO2 PK WND 06028/0354 RAB0355E08 SLP181 P0002 T02500206
Loading
Personal Weather Stations






























Interactive Weather Map
Tropical Storm Tracking
New forecast layout! Learn more

10-Day Weather Forecast

Advertisements
Track Severe Weather on mobile